sensor_id;sensor_type;location;lat;lon;timestamp;temperature;humidity
77700;DHT22;66867;42.658;23.320;2023-05-10T00:00:00;11.2;90
77700;DHT22;66867;42.658;23.320;2023-05-10T00:01:00;11.1;90
77700;DHT22;66867;42.658;23.320;2023-05-10T00:02:00;11.2;90
77700;DHT22;66867;42.658;23.320;2023-05-10T00:03:00;11.1;90
77700;DHT22;66867;42.658;23.320;2023-05-10T00:04:00;11.2;90
77700;DHT22;66867;42.658;23.320;2023-05-10T00:05:00;11.2;90
77700;DHT22;66867;42.658;23.320;2023-05-10T00:06:00;11.2;90
77700;DHT22;66867;42.658;23.320;2023-05-10T00:07:00;11.2;90
77700;DHT22;66867;42.658;23.320;2023-05-10T00:08:00;11.2;90
77700;DHT22;66867;42.658;23.320;2023-05-10T00:09:00;11.1;90
77700;DHT22;66867;42.658;23.320;2023-05-10T00:10:00;11.1;90
77700;DHT22;66867;42.658;23.320;2023-05-10T00:11:00;11.1;90
77700;DHT22;66867;42.658;23.320;2023-05-10T00:12:00;11.1;90
77700;DHT22;66867;42.658;23.320;2023-05-10T00:13:00;11.1;89
77700;DHT22;66867;42.658;23.320;2023-05-10T00:14:00;11.1;90
77700;DHT22;66867;42.658;23.320;2023-05-10T00:15:00;11.1;90
77700;DHT22;66867;42.658;23.320;2023-05-10T00:16:00;11.1;89
77700;DHT22;66867;42.658;23.320;2023-05-10T00:17:00;11.1;90
77700;DHT22;66867;42.658;23.320;2023-05-10T00:18:00;11.0;90
77700;DHT22;66867;42.658;23.320;2023-05-10T00:19:00;10.9;90
77700;DHT22;66867;42.658;23.320;2023-05-10T00:20:00;11.0;90
77700;DHT22;66867;42.658;23.320;2023-05-10T00:21:00;11.0;90
77700;DHT22;66867;42.658;23.320;2023-05-10T00:22:00;11.0;90
77700;DHT22;66867;42.658;23.320;2023-05-10T00:23:00;11.0;90
77700;DHT22;66867;42.658;23.320;2023-05-10T00:24:00;11.0;90
77700;DHT22;66867;42.658;23.320;2023-05-10T00:25:00;11.0;90
77700;DHT22;66867;42.658;23.320;2023-05-10T00:26:00;11.0;90
77700;DHT22;66867;42.658;23.320;2023-05-10T00:27:00;11.0;90
77700;DHT22;66867;42.658;23.320;2023-05-10T00:28:00;11.0;89
77700;DHT22;66867;42.658;23.320;2023-05-10T00:29:00;11.0;90
77700;DHT22;66867;42.658;23.320;2023-05-10T00:30:00;11.0;90
77700;DHT22;66867;42.658;23.320;2023-05-10T00:31:00;11.1;90
77700;DHT22;66867;42.658;23.320;2023-05-10T00:32:00;11.1;90
77700;DHT22;66867;42.658;23.320;2023-05-10T00:33:00;11.1;89
77700;DHT22;66867;42.658;23.320;2023-05-10T00:34:00;11.0;90
77700;DHT22;66867;42.658;23.320;2023-05-10T00:35:00;11.1;89
77700;DHT22;66867;42.658;23.320;2023-05-10T00:36:00;11.0;89
77700;DHT22;66867;42.658;23.320;2023-05-10T00:37:00;11.0;89
77700;DHT22;66867;42.658;23.320;2023-05-10T00:38:00;11.0;89
77700;DHT22;66867;42.658;23.320;2023-05-10T00:39:00;11.0;89
77700;DHT22;66867;42.658;23.320;2023-05-10T00:40:00;11.0;88
77700;DHT22;66867;42.658;23.320;2023-05-10T00:41:00;11.0;88
77700;DHT22;66867;42.658;23.320;2023-05-10T00:42:00;11.0;88
77700;DHT22;66867;42.658;23.320;2023-05-10T00:43:00;10.9;88
77700;DHT22;66867;42.658;23.320;2023-05-10T00:44:00;10.9;89
77700;DHT22;66867;42.658;23.320;2023-05-10T00:45:00;10.9;89
77700;DHT22;66867;42.658;23.320;2023-05-10T00:46:00;10.9;89
77700;DHT22;66867;42.658;23.320;2023-05-10T00:47:00;10.9;89
77700;DHT22;66867;42.658;23.320;2023-05-10T00:48:01;10.9;89
77700;DHT22;66867;42.658;23.320;2023-05-10T00:49:00;10.9;89
77700;DHT22;66867;42.658;23.320;2023-05-10T00:50:00;10.9;89
77700;DHT22;66867;42.658;23.320;2023-05-10T00:51:00;10.9;90
77700;DHT22;66867;42.658;23.320;2023-05-10T00:52:00;10.9;89
77700;DHT22;66867;42.658;23.320;2023-05-10T00:53:00;10.9;89
77700;DHT22;66867;42.658;23.320;2023-05-10T00:54:00;10.9;89
77700;DHT22;66867;42.658;23.320;2023-05-10T00:55:00;10.9;89
77700;DHT22;66867;42.658;23.320;2023-05-10T00:56:00;10.9;89
77700;DHT22;66867;42.658;23.320;2023-05-10T00:57:00;10.9;88
77700;DHT22;66867;42.658;23.320;2023-05-10T00:58:00;10.8;88
77700;DHT22;66867;42.658;23.320;2023-05-10T00:59:00;10.9;89
77700;DHT22;66867;42.658;23.320;2023-05-10T01:00:00;10.8;89
77700;DHT22;66867;42.658;23.320;2023-05-10T01:01:00;10.8;88
77700;DHT22;66867;42.658;23.320;2023-05-10T01:02:00;10.9;89
77700;DHT22;66867;42.658;23.320;2023-05-10T01:03:00;10.9;89
77700;DHT22;66867;42.658;23.320;2023-05-10T01:04:00;10.9;89
77700;DHT22;66867;42.658;23.320;2023-05-10T01:05:01;10.9;89
77700;DHT22;66867;42.658;23.320;2023-05-10T01:06:00;10.9;89
77700;DHT22;66867;42.658;23.320;2023-05-10T01:07:00;10.9;89
77700;DHT22;66867;42.658;23.320;2023-05-10T01:08:00;10.9;89
77700;DHT22;66867;42.658;23.320;2023-05-10T01:09:00;10.9;88
77700;DHT22;66867;42.658;23.320;2023-05-10T01:10:00;10.8;88
77700;DHT22;66867;42.658;23.320;2023-05-10T01:11:00;10.8;89
77700;DHT22;66867;42.658;23.320;2023-05-10T01:12:00;10.8;89
77700;DHT22;66867;42.658;23.320;2023-05-10T01:13:00;10.8;89
77700;DHT22;66867;42.658;23.320;2023-05-10T01:14:00;10.8;89
77700;DHT22;66867;42.658;23.320;2023-05-10T01:15:00;10.8;89
77700;DHT22;66867;42.658;23.320;2023-05-10T01:16:00;10.8;89
77700;DHT22;66867;42.658;23.320;2023-05-10T01:17:00;10.8;89
77700;DHT22;66867;42.658;23.320;2023-05-10T01:18:00;10.8;89
77700;DHT22;66867;42.658;23.320;2023-05-10T01:19:00;10.8;89
77700;DHT22;66867;42.658;23.320;2023-05-10T01:20:00;10.8;88
77700;DHT22;66867;42.658;23.320;2023-05-10T01:21:04;10.8;88
77700;DHT22;66867;42.658;23.320;2023-05-10T01:26:07;10.8;88
77700;DHT22;66867;42.658;23.320;2023-05-10T01:30:01;10.8;88
77700;DHT22;66867;42.658;23.320;2023-05-10T01:34:16;10.8;87
77700;DHT22;66867;42.658;23.320;2023-05-10T01:36:05;10.7;88
77700;DHT22;66867;42.658;23.320;2023-05-10T01:37:04;10.7;87
77700;DHT22;66867;42.658;23.320;2023-05-10T01:38:12;10.7;87
77700;DHT22;66867;42.658;23.320;2023-05-10T01:39:04;10.6;87
77700;DHT22;66867;42.658;23.320;2023-05-10T01:40:19;10.6;87
77700;DHT22;66867;42.658;23.320;2023-05-10T01:41:04;10.5;87
77700;DHT22;66867;42.658;23.320;2023-05-10T01:42:04;10.5;87
77700;DHT22;66867;42.658;23.320;2023-05-10T01:43:01;10.5;86
77700;DHT22;66867;42.658;23.320;2023-05-10T01:46:05;10.4;87
77700;DHT22;66867;42.658;23.320;2023-05-10T01:47:04;10.4;86
77700;DHT22;66867;42.658;23.320;2023-05-10T01:48:16;10.4;86
77700;DHT22;66867;42.658;23.320;2023-05-10T01:49:00;10.4;87
77700;DHT22;66867;42.658;23.320;2023-05-10T01:50:01;10.3;86
77700;DHT22;66867;42.658;23.320;2023-05-10T01:51:00;10.3;86
77700;DHT22;66867;42.658;23.320;2023-05-10T01:52:03;10.3;87
77700;DHT22;66867;42.658;23.320;2023-05-10T01:53:00;10.2;87
77700;DHT22;66867;42.658;23.320;2023-05-10T01:54:01;10.2;86
77700;DHT22;66867;42.658;23.320;2023-05-10T01:55:02;10.3;86
77700;DHT22;66867;42.658;23.320;2023-05-10T01:56:00;10.2;87
77700;DHT22;66867;42.658;23.320;2023-05-10T01:57:03;10.2;86
77700;DHT22;66867;42.658;23.320;2023-05-10T01:58:03;10.2;87
77700;DHT22;66867;42.658;23.320;2023-05-10T01:59:00;10.2;86
77700;DHT22;66867;42.658;23.320;2023-05-10T02:00:02;10.1;86
77700;DHT22;66867;42.658;23.320;2023-05-10T02:01:01;10.1;87
77700;DHT22;66867;42.658;23.320;2023-05-10T02:02:00;10.1;87
77700;DHT22;66867;42.658;23.320;2023-05-10T02:03:01;10.1;86
77700;DHT22;66867;42.658;23.320;2023-05-10T02:04:00;10.1;87
77700;DHT22;66867;42.658;23.320;2023-05-10T02:05:00;10.1;86
77700;DHT22;66867;42.658;23.320;2023-05-10T02:06:00;10.0;86
77700;DHT22;66867;42.658;23.320;2023-05-10T02:07:00;10.0;87
77700;DHT22;66867;42.658;23.320;2023-05-10T02:08:00;10.1;87
77700;DHT22;66867;42.658;23.320;2023-05-10T02:09:00;10.1;87
77700;DHT22;66867;42.658;23.320;2023-05-10T02:10:00;10.0;87
77700;DHT22;66867;42.658;23.320;2023-05-10T02:11:00;9.9;87
77700;DHT22;66867;42.658;23.320;2023-05-10T02:12:01;9.9;87
77700;DHT22;66867;42.658;23.320;2023-05-10T02:13:00;9.9;86
77700;DHT22;66867;42.658;23.320;2023-05-10T02:14:00;9.9;86
77700;DHT22;66867;42.658;23.320;2023-05-10T02:15:00;9.9;86
77700;DHT22;66867;42.658;23.320;2023-05-10T02:16:00;9.9;86
77700;DHT22;66867;42.658;23.320;2023-05-10T02:17:00;9.9;86
77700;DHT22;66867;42.658;23.320;2023-05-10T02:18:00;9.9;86
77700;DHT22;66867;42.658;23.320;2023-05-10T02:19:00;9.9;86
77700;DHT22;66867;42.658;23.320;2023-05-10T02:20:01;9.8;85
77700;DHT22;66867;42.658;23.320;2023-05-10T02:21:01;9.8;84
77700;DHT22;66867;42.658;23.320;2023-05-10T02:22:00;9.7;84
77700;DHT22;66867;42.658;23.320;2023-05-10T02:23:01;9.7;84
77700;DHT22;66867;42.658;23.320;2023-05-10T02:24:01;9.7;84
77700;DHT22;66867;42.658;23.320;2023-05-10T02:25:00;9.7;84
77700;DHT22;66867;42.658;23.320;2023-05-10T02:26:00;9.7;83
77700;DHT22;66867;42.658;23.320;2023-05-10T02:27:00;9.7;82
77700;DHT22;66867;42.658;23.320;2023-05-10T02:28:01;9.7;80
77700;DHT22;66867;42.658;23.320;2023-05-10T02:29:01;9.6;80
77700;DHT22;66867;42.658;23.320;2023-05-10T02:30:00;9.6;80
77700;DHT22;66867;42.658;23.320;2023-05-10T02:31:00;9.6;80
77700;DHT22;66867;42.658;23.320;2023-05-10T02:32:00;9.6;80
77700;DHT22;66867;42.658;23.320;2023-05-10T02:33:00;9.6;79
77700;DHT22;66867;42.658;23.320;2023-05-10T02:34:00;9.5;79
77700;DHT22;66867;42.658;23.320;2023-05-10T02:35:01;9.4;79
77700;DHT22;66867;42.658;23.320;2023-05-10T02:36:01;9.4;79
77700;DHT22;66867;42.658;23.320;2023-05-10T02:37:00;9.4;79
77700;DHT22;66867;42.658;23.320;2023-05-10T02:38:00;9.4;78
77700;DHT22;66867;42.658;23.320;2023-05-10T02:39:00;9.4;79
77700;DHT22;66867;42.658;23.320;2023-05-10T02:40:00;9.3;80
77700;DHT22;66867;42.658;23.320;2023-05-10T02:41:01;9.3;79
77700;DHT22;66867;42.658;23.320;2023-05-10T02:42:00;9.3;79
77700;DHT22;66867;42.658;23.320;2023-05-10T02:43:01;9.3;80
77700;DHT22;66867;42.658;23.320;2023-05-10T02:44:01;9.2;80
77700;DHT22;66867;42.658;23.320;2023-05-10T02:45:01;9.2;80
77700;DHT22;66867;42.658;23.320;2023-05-10T02:46:00;9.2;80
77700;DHT22;66867;42.658;23.320;2023-05-10T02:47:02;9.2;80
77700;DHT22;66867;42.658;23.320;2023-05-10T02:48:00;9.2;81
77700;DHT22;66867;42.658;23.320;2023-05-10T02:49:00;9.2;81
77700;DHT22;66867;42.658;23.320;2023-05-10T02:50:00;9.2;81
77700;DHT22;66867;42.658;23.320;2023-05-10T02:51:01;9.2;81
77700;DHT22;66867;42.658;23.320;2023-05-10T02:52:00;9.2;82
77700;DHT22;66867;42.658;23.320;2023-05-10T02:53:00;9.2;82
77700;DHT22;66867;42.658;23.320;2023-05-10T02:54:04;9.1;81
77700;DHT22;66867;42.658;23.320;2023-05-10T02:55:00;9.1;82
77700;DHT22;66867;42.658;23.320;2023-05-10T02:56:01;9.2;82
77700;DHT22;66867;42.658;23.320;2023-05-10T02:57:00;9.2;82
77700;DHT22;66867;42.658;23.320;2023-05-10T02:58:00;9.1;81
77700;DHT22;66867;42.658;23.320;2023-05-10T02:59:00;9.1;82
77700;DHT22;66867;42.658;23.320;2023-05-10T03:00:01;9.1;82
77700;DHT22;66867;42.658;23.320;2023-05-10T03:01:00;9.1;83
77700;DHT22;66867;42.658;23.320;2023-05-10T03:02:00;9.1;83
77700;DHT22;66867;42.658;23.320;2023-05-10T03:03:00;9.1;83
77700;DHT22;66867;42.658;23.320;2023-05-10T03:04:00;9.1;83
77700;DHT22;66867;42.658;23.320;2023-05-10T03:05:00;9.1;83
77700;DHT22;66867;42.658;23.320;2023-05-10T03:06:00;9.1;83
77700;DHT22;66867;42.658;23.320;2023-05-10T03:07:00;9.1;83
77700;DHT22;66867;42.658;23.320;2023-05-10T03:08:00;9.1;83
77700;DHT22;66867;42.658;23.320;2023-05-10T03:09:01;9.0;83
77700;DHT22;66867;42.658;23.320;2023-05-10T03:10:00;9.1;83
77700;DHT22;66867;42.658;23.320;2023-05-10T03:12:01;9.1;83
77700;DHT22;66867;42.658;23.320;2023-05-10T03:13:05;9.2;83
77700;DHT22;66867;42.658;23.320;2023-05-10T03:15:02;9.1;83
77700;DHT22;66867;42.658;23.320;2023-05-10T03:16:04;9.1;83
77700;DHT22;66867;42.658;23.320;2023-05-10T03:17:04;9.1;83
77700;DHT22;66867;42.658;23.320;2023-05-10T03:18:02;9.0;83
77700;DHT22;66867;42.658;23.320;2023-05-10T03:19:02;9.0;84
77700;DHT22;66867;42.658;23.320;2023-05-10T03:20:04;9.1;83
77700;DHT22;66867;42.658;23.320;2023-05-10T03:21:02;9.1;83
77700;DHT22;66867;42.658;23.320;2023-05-10T03:22:03;9.1;83
77700;DHT22;66867;42.658;23.320;2023-05-10T03:23:04;9.1;83
77700;DHT22;66867;42.658;23.320;2023-05-10T03:24:05;9.1;83
77700;DHT22;66867;42.658;23.320;2023-05-10T03:25:00;9.0;83
77700;DHT22;66867;42.658;23.320;2023-05-10T03:26:00;9.0;84
77700;DHT22;66867;42.658;23.320;2023-05-10T03:27:00;9.0;84
77700;DHT22;66867;42.658;23.320;2023-05-10T03:28:00;9.0;84
77700;DHT22;66867;42.658;23.320;2023-05-10T03:29:00;9.0;84
77700;DHT22;66867;42.658;23.320;2023-05-10T03:30:01;9.0;83
77700;DHT22;66867;42.658;23.320;2023-05-10T03:31:00;9.0;84
77700;DHT22;66867;42.658;23.320;2023-05-10T03:32:00;9.0;84
77700;DHT22;66867;42.658;23.320;2023-05-10T03:33:07;9.0;83
77700;DHT22;66867;42.658;23.320;2023-05-10T03:34:00;9.0;84
77700;DHT22;66867;42.658;23.320;2023-05-10T03:35:00;9.1;83
77700;DHT22;66867;42.658;23.320;2023-05-10T03:36:00;9.1;83
77700;DHT22;66867;42.658;23.320;2023-05-10T03:37:00;9.1;83
77700;DHT22;66867;42.658;23.320;2023-05-10T03:38:00;9.1;83
77700;DHT22;66867;42.658;23.320;2023-05-10T03:39:00;9.1;83
77700;DHT22;66867;42.658;23.320;2023-05-10T03:40:00;9.1;83
77700;DHT22;66867;42.658;23.320;2023-05-10T03:41:00;9.0;83
77700;DHT22;66867;42.658;23.320;2023-05-10T03:42:00;9.1;83
77700;DHT22;66867;42.658;23.320;2023-05-10T03:43:00;9.1;83
77700;DHT22;66867;42.658;23.320;2023-05-10T03:44:00;9.1;82
77700;DHT22;66867;42.658;23.320;2023-05-10T03:45:00;9.0;82
77700;DHT22;66867;42.658;23.320;2023-05-10T03:46:02;9.1;83
77700;DHT22;66867;42.658;23.320;2023-05-10T03:47:00;9.1;82
77700;DHT22;66867;42.658;23.320;2023-05-10T03:48:00;9.1;82
77700;DHT22;66867;42.658;23.320;2023-05-10T03:49:00;9.0;82
77700;DHT22;66867;42.658;23.320;2023-05-10T03:50:00;9.1;82
77700;DHT22;66867;42.658;23.320;2023-05-10T03:51:00;9.1;82
77700;DHT22;66867;42.658;23.320;2023-05-10T03:52:00;9.1;82
77700;DHT22;66867;42.658;23.320;2023-05-10T03:53:00;9.1;82
77700;DHT22;66867;42.658;23.320;2023-05-10T03:54:00;9.1;82
77700;DHT22;66867;42.658;23.320;2023-05-10T03:55:00;9.1;81
77700;DHT22;66867;42.658;23.320;2023-05-10T03:56:00;9.1;81
77700;DHT22;66867;42.658;23.320;2023-05-10T03:57:00;9.0;81
77700;DHT22;66867;42.658;23.320;2023-05-10T03:58:00;9.0;80
77700;DHT22;66867;42.658;23.320;2023-05-10T03:59:00;9.0;81
77700;DHT22;66867;42.658;23.320;2023-05-10T04:00:00;9.0;81
77700;DHT22;66867;42.658;23.320;2023-05-10T04:01:00;9.0;81
77700;DHT22;66867;42.658;23.320;2023-05-10T04:02:00;9.0;80
77700;DHT22;66867;42.658;23.320;2023-05-10T04:03:00;9.0;81
77700;DHT22;66867;42.658;23.320;2023-05-10T04:04:00;9.0;81
77700;DHT22;66867;42.658;23.320;2023-05-10T04:05:00;9.0;81
77700;DHT22;66867;42.658;23.320;2023-05-10T04:06:00;9.0;81
77700;DHT22;66867;42.658;23.320;2023-05-10T04:07:00;9.0;81
77700;DHT22;66867;42.658;23.320;2023-05-10T04:08:00;9.0;81
77700;DHT22;66867;42.658;23.320;2023-05-10T04:09:00;9.0;81
77700;DHT22;66867;42.658;23.320;2023-05-10T04:10:00;9.0;82
77700;DHT22;66867;42.658;23.320;2023-05-10T04:11:08;9.0;81
77700;DHT22;66867;42.658;23.320;2023-05-10T04:12:00;9.0;81
77700;DHT22;66867;42.658;23.320;2023-05-10T04:13:00;9.0;82
77700;DHT22;66867;42.658;23.320;2023-05-10T04:14:00;9.1;82
77700;DHT22;66867;42.658;23.320;2023-05-10T04:15:00;9.1;82
77700;DHT22;66867;42.658;23.320;2023-05-10T04:16:00;9.1;81
77700;DHT22;66867;42.658;23.320;2023-05-10T04:17:00;9.1;81
77700;DHT22;66867;42.658;23.320;2023-05-10T04:18:00;9.1;82
77700;DHT22;66867;42.658;23.320;2023-05-10T04:19:00;9.1;82
77700;DHT22;66867;42.658;23.320;2023-05-10T04:20:00;9.0;82
77700;DHT22;66867;42.658;23.320;2023-05-10T04:21:00;9.1;82
77700;DHT22;66867;42.658;23.320;2023-05-10T04:22:01;9.0;82
77700;DHT22;66867;42.658;23.320;2023-05-10T04:23:00;9.1;82
77700;DHT22;66867;42.658;23.320;2023-05-10T04:24:00;9.1;82
77700;DHT22;66867;42.658;23.320;2023-05-10T04:25:00;9.1;82
77700;DHT22;66867;42.658;23.320;2023-05-10T04:26:00;9.1;82
77700;DHT22;66867;42.658;23.320;2023-05-10T04:27:00;9.1;82
77700;DHT22;66867;42.658;23.320;2023-05-10T04:28:00;9.1;83
77700;DHT22;66867;42.658;23.320;2023-05-10T04:29:00;9.1;83
77700;DHT22;66867;42.658;23.320;2023-05-10T04:30:00;9.1;83
77700;DHT22;66867;42.658;23.320;2023-05-10T04:31:01;9.1;82
77700;DHT22;66867;42.658;23.320;2023-05-10T04:32:00;9.1;83
77700;DHT22;66867;42.658;23.320;2023-05-10T04:33:00;9.1;83
77700;DHT22;66867;42.658;23.320;2023-05-10T04:34:00;9.1;83
77700;DHT22;66867;42.658;23.320;2023-05-10T04:35:00;9.1;83
77700;DHT22;66867;42.658;23.320;2023-05-10T04:36:00;9.1;83
77700;DHT22;66867;42.658;23.320;2023-05-10T04:37:00;9.1;83
77700;DHT22;66867;42.658;23.320;2023-05-10T04:38:00;9.1;83
77700;DHT22;66867;42.658;23.320;2023-05-10T04:39:00;9.2;83
77700;DHT22;66867;42.658;23.320;2023-05-10T04:40:00;9.2;83
77700;DHT22;66867;42.658;23.320;2023-05-10T04:41:08;9.1;83
77700;DHT22;66867;42.658;23.320;2023-05-10T04:42:01;9.2;83
77700;DHT22;66867;42.658;23.320;2023-05-10T04:43:00;9.1;83
77700;DHT22;66867;42.658;23.320;2023-05-10T04:44:00;9.2;84
77700;DHT22;66867;42.658;23.320;2023-05-10T04:45:00;9.2;84
77700;DHT22;66867;42.658;23.320;2023-05-10T04:46:00;9.2;84
77700;DHT22;66867;42.658;23.320;2023-05-10T04:47:00;9.2;84
77700;DHT22;66867;42.658;23.320;2023-05-10T04:48:00;9.2;83
77700;DHT22;66867;42.658;23.320;2023-05-10T04:49:00;9.2;83
77700;DHT22;66867;42.658;23.320;2023-05-10T04:50:00;9.2;84
77700;DHT22;66867;42.658;23.320;2023-05-10T04:51:00;9.2;83
77700;DHT22;66867;42.658;23.320;2023-05-10T04:52:00;9.2;84
77700;DHT22;66867;42.658;23.320;2023-05-10T04:53:00;9.2;84
77700;DHT22;66867;42.658;23.320;2023-05-10T04:54:00;9.2;84
77700;DHT22;66867;42.658;23.320;2023-05-10T04:55:00;9.3;84
77700;DHT22;66867;42.658;23.320;2023-05-10T04:56:00;9.3;84
77700;DHT22;66867;42.658;23.320;2023-05-10T04:57:00;9.3;83
77700;DHT22;66867;42.658;23.320;2023-05-10T04:58:00;9.3;84
77700;DHT22;66867;42.658;23.320;2023-05-10T04:59:00;9.3;83
77700;DHT22;66867;42.658;23.320;2023-05-10T05:00:00;9.3;83
77700;DHT22;66867;42.658;23.320;2023-05-10T05:01:05;9.3;83
77700;DHT22;66867;42.658;23.320;2023-05-10T05:02:00;9.3;84
77700;DHT22;66867;42.658;23.320;2023-05-10T05:03:00;9.3;84
77700;DHT22;66867;42.658;23.320;2023-05-10T05:04:00;9.3;84
77700;DHT22;66867;42.658;23.320;2023-05-10T05:05:00;9.3;83
77700;DHT22;66867;42.658;23.320;2023-05-10T05:06:00;9.3;84
77700;DHT22;66867;42.658;23.320;2023-05-10T05:07:00;9.3;84
77700;DHT22;66867;42.658;23.320;2023-05-10T05:08:00;9.3;84
77700;DHT22;66867;42.658;23.320;2023-05-10T05:09:00;9.3;85
77700;DHT22;66867;42.658;23.320;2023-05-10T05:10:00;9.4;84
77700;DHT22;66867;42.658;23.320;2023-05-10T05:11:00;9.3;84
77700;DHT22;66867;42.658;23.320;2023-05-10T05:12:00;9.3;85
77700;DHT22;66867;42.658;23.320;2023-05-10T05:13:00;9.3;85
77700;DHT22;66867;42.658;23.320;2023-05-10T05:14:00;9.3;84
77700;DHT22;66867;42.658;23.320;2023-05-10T05:15:00;9.4;84
77700;DHT22;66867;42.658;23.320;2023-05-10T05:16:01;9.5;84
77700;DHT22;66867;42.658;23.320;2023-05-10T05:17:00;9.4;84
77700;DHT22;66867;42.658;23.320;2023-05-10T05:18:00;9.4;85
77700;DHT22;66867;42.658;23.320;2023-05-10T05:19:00;9.4;85
77700;DHT22;66867;42.658;23.320;2023-05-10T05:20:00;9.4;85
77700;DHT22;66867;42.658;23.320;2023-05-10T05:21:00;9.3;86
77700;DHT22;66867;42.658;23.320;2023-05-10T05:22:00;9.4;85
77700;DHT22;66867;42.658;23.320;2023-05-10T05:23:00;9.4;85
77700;DHT22;66867;42.658;23.320;2023-05-10T05:24:00;9.4;85
77700;DHT22;66867;42.658;23.320;2023-05-10T05:25:00;9.4;85
77700;DHT22;66867;42.658;23.320;2023-05-10T05:26:00;9.4;85
77700;DHT22;66867;42.658;23.320;2023-05-10T05:27:00;9.4;85
77700;DHT22;66867;42.658;23.320;2023-05-10T05:28:00;9.4;85
77700;DHT22;66867;42.658;23.320;2023-05-10T05:29:00;9.4;86
77700;DHT22;66867;42.658;23.320;2023-05-10T05:30:00;9.5;85
77700;DHT22;66867;42.658;23.320;2023-05-10T05:31:00;9.5;85
77700;DHT22;66867;42.658;23.320;2023-05-10T05:32:00;9.5;85
77700;DHT22;66867;42.658;23.320;2023-05-10T05:33:00;9.5;85
77700;DHT22;66867;42.658;23.320;2023-05-10T05:34:00;9.6;85
77700;DHT22;66867;42.658;23.320;2023-05-10T05:35:00;9.6;85
77700;DHT22;66867;42.658;23.320;2023-05-10T05:36:01;9.5;85
77700;DHT22;66867;42.658;23.320;2023-05-10T05:37:00;9.5;85
77700;DHT22;66867;42.658;23.320;2023-05-10T05:38:00;9.5;85
77700;DHT22;66867;42.658;23.320;2023-05-10T05:39:00;9.6;85
77700;DHT22;66867;42.658;23.320;2023-05-10T05:40:00;9.5;85
77700;DHT22;66867;42.658;23.320;2023-05-10T05:41:00;9.5;84
77700;DHT22;66867;42.658;23.320;2023-05-10T05:42:00;9.5;85
77700;DHT22;66867;42.658;23.320;2023-05-10T05:43:00;9.5;85
77700;DHT22;66867;42.658;23.320;2023-05-10T05:44:00;9.5;86
77700;DHT22;66867;42.658;23.320;2023-05-10T05:45:00;9.4;86
77700;DHT22;66867;42.658;23.320;2023-05-10T05:46:00;9.5;86
77700;DHT22;66867;42.658;23.320;2023-05-10T05:47:00;9.5;86
77700;DHT22;66867;42.658;23.320;2023-05-10T05:48:00;9.5;85
77700;DHT22;66867;42.658;23.320;2023-05-10T05:49:00;9.5;86
77700;DHT22;66867;42.658;23.320;2023-05-10T05:50:00;9.5;86
77700;DHT22;66867;42.658;23.320;2023-05-10T05:51:00;9.5;86
77700;DHT22;66867;42.658;23.320;2023-05-10T05:52:01;9.5;85
77700;DHT22;66867;42.658;23.320;2023-05-10T05:53:00;9.5;85
77700;DHT22;66867;42.658;23.320;2023-05-10T05:54:00;9.5;85
77700;DHT22;66867;42.658;23.320;2023-05-10T05:55:00;9.5;85
77700;DHT22;66867;42.658;23.320;2023-05-10T05:56:00;9.5;85
77700;DHT22;66867;42.658;23.320;2023-05-10T05:57:00;9.5;85
77700;DHT22;66867;42.658;23.320;2023-05-10T05:58:00;9.6;85
77700;DHT22;66867;42.658;23.320;2023-05-10T05:59:00;9.6;85
77700;DHT22;66867;42.658;23.320;2023-05-10T06:00:00;9.6;86
77700;DHT22;66867;42.658;23.320;2023-05-10T06:01:00;9.6;86
77700;DHT22;66867;42.658;23.320;2023-05-10T06:02:00;9.6;86
77700;DHT22;66867;42.658;23.320;2023-05-10T06:03:00;9.6;86
77700;DHT22;66867;42.658;23.320;2023-05-10T06:04:00;9.6;86
77700;DHT22;66867;42.658;23.320;2023-05-10T06:05:00;9.6;85
77700;DHT22;66867;42.658;23.320;2023-05-10T06:06:00;9.7;86
77700;DHT22;66867;42.658;23.320;2023-05-10T06:07:00;9.6;86
77700;DHT22;66867;42.658;23.320;2023-05-10T06:08:00;9.6;85
77700;DHT22;66867;42.658;23.320;2023-05-10T06:09:00;9.6;85
77700;DHT22;66867;42.658;23.320;2023-05-10T06:10:00;9.7;85
77700;DHT22;66867;42.658;23.320;2023-05-10T06:11:00;9.7;85
77700;DHT22;66867;42.658;23.320;2023-05-10T06:12:00;9.7;86
77700;DHT22;66867;42.658;23.320;2023-05-10T06:13:00;9.7;86
77700;DHT22;66867;42.658;23.320;2023-05-10T06:14:01;9.7;86
77700;DHT22;66867;42.658;23.320;2023-05-10T06:15:00;9.7;86
77700;DHT22;66867;42.658;23.320;2023-05-10T06:16:00;9.7;86
77700;DHT22;66867;42.658;23.320;2023-05-10T06:17:00;9.7;86
77700;DHT22;66867;42.658;23.320;2023-05-10T06:18:00;9.7;86
77700;DHT22;66867;42.658;23.320;2023-05-10T06:19:00;9.7;86
77700;DHT22;66867;42.658;23.320;2023-05-10T06:20:00;9.8;86
77700;DHT22;66867;42.658;23.320;2023-05-10T06:21:00;9.8;85
77700;DHT22;66867;42.658;23.320;2023-05-10T06:22:00;9.8;86
77700;DHT22;66867;42.658;23.320;2023-05-10T06:23:00;9.7;87
77700;DHT22;66867;42.658;23.320;2023-05-10T06:24:00;9.7;86
77700;DHT22;66867;42.658;23.320;2023-05-10T06:25:00;9.7;86
77700;DHT22;66867;42.658;23.320;2023-05-10T06:26:00;9.7;86
77700;DHT22;66867;42.658;23.320;2023-05-10T06:27:00;9.8;85
77700;DHT22;66867;42.658;23.320;2023-05-10T06:28:00;9.8;85
77700;DHT22;66867;42.658;23.320;2023-05-10T06:29:00;9.7;85
77700;DHT22;66867;42.658;23.320;2023-05-10T06:30:00;9.8;85
77700;DHT22;66867;42.658;23.320;2023-05-10T06:31:00;9.9;85
77700;DHT22;66867;42.658;23.320;2023-05-10T06:32:00;9.8;84
77700;DHT22;66867;42.658;23.320;2023-05-10T06:33:00;9.8;84
77700;DHT22;66867;42.658;23.320;2023-05-10T06:34:00;9.9;85
77700;DHT22;66867;42.658;23.320;2023-05-10T06:35:00;9.9;85
77700;DHT22;66867;42.658;23.320;2023-05-10T06:36:00;9.8;85
77700;DHT22;66867;42.658;23.320;2023-05-10T06:37:00;9.8;85
77700;DHT22;66867;42.658;23.320;2023-05-10T06:38:00;9.8;84
77700;DHT22;66867;42.658;23.320;2023-05-10T06:39:00;9.8;84
77700;DHT22;66867;42.658;23.320;2023-05-10T06:40:00;9.9;84
77700;DHT22;66867;42.658;23.320;2023-05-10T06:41:00;9.9;85
77700;DHT22;66867;42.658;23.320;2023-05-10T06:42:00;9.9;84
77700;DHT22;66867;42.658;23.320;2023-05-10T06:43:00;9.9;84
77700;DHT22;66867;42.658;23.320;2023-05-10T06:44:00;9.9;85
77700;DHT22;66867;42.658;23.320;2023-05-10T06:45:00;9.9;85
77700;DHT22;66867;42.658;23.320;2023-05-10T06:46:00;9.9;84
77700;DHT22;66867;42.658;23.320;2023-05-10T06:47:00;10.0;85
77700;DHT22;66867;42.658;23.320;2023-05-10T06:48:00;9.9;84
77700;DHT22;66867;42.658;23.320;2023-05-10T06:49:00;10.0;84
77700;DHT22;66867;42.658;23.320;2023-05-10T06:50:00;9.9;84
77700;DHT22;66867;42.658;23.320;2023-05-10T06:51:00;10.0;83
77700;DHT22;66867;42.658;23.320;2023-05-10T06:52:00;10.0;83
77700;DHT22;66867;42.658;23.320;2023-05-10T06:53:00;10.0;83
77700;DHT22;66867;42.658;23.320;2023-05-10T06:54:00;10.0;83
77700;DHT22;66867;42.658;23.320;2023-05-10T06:55:00;10.0;82
77700;DHT22;66867;42.658;23.320;2023-05-10T06:56:00;10.0;83
77700;DHT22;66867;42.658;23.320;2023-05-10T06:57:00;10.0;83